Time;durP1;ratioP1;P1;durP2;ratioP2;P2;SDS_P1;SDS_P2;PMS_P1;PMS_P2;Temp;Humidity;BMP_temperature;BMP_pressure;BME280_temperature;BME280_humidity;BME280_pressure;Samples;Min_cycle;Max_cycle;Signal;HPM_P1;HPM_P2
2023/04/04 00:01:25;;;;;;;2.60;0.88;;;3.80;99.90;;;;;;5056202;28;20061;-39
2023/04/04 00:03:51;;;;;;;2.67;0.88;;;3.70;99.90;;;;;;5054446;28;20486;-37
2023/04/04 00:06:18;;;;;;;3.15;0.98;;;3.70;99.90;;;;;;5059237;28;20091;-46
2023/04/04 00:08:43;;;;;;;1.77;0.70;;;3.70;99.90;;;;;;5057924;28;20037;-38
2023/04/04 00:11:09;;;;;;;4.82;1.23;;;3.60;99.90;;;;;;5058500;28;20055;-37
2023/04/04 00:13:35;;;;;;;3.10;1.05;;;3.60;99.90;;;;;;5057332;28;20048;-38
2023/04/04 00:16:01;;;;;;;4.18;0.98;;;3.60;99.90;;;;;;5056017;28;20060;-37
2023/04/04 00:18:26;;;;;;;4.13;1.00;;;3.60;99.90;;;;;;5061052;28;20421;-37
2023/04/04 00:20:52;;;;;;;2.97;1.00;;;3.60;99.90;;;;;;5057533;28;20502;-37
2023/04/04 00:23:18;;;;;;;4.18;1.00;;;3.60;99.90;;;;;;5054573;28;20052;-37
2023/04/04 00:25:51;;;;;;;2.38;1.05;;;3.60;99.90;;;;;;5044739;28;20048;-38
2023/04/04 00:28:18;;;;;;;2.08;0.80;;;3.60;99.90;;;;;;5037713;28;20044;-37
2023/04/04 00:30:45;;;;;;;2.65;1.13;;;3.50;99.90;;;;;;5053871;28;20322;-37
2023/04/04 00:33:12;;;;;;;2.50;0.90;;;3.50;99.90;;;;;;5054948;28;20049;-37
2023/04/04 00:35:37;;;;;;;1.77;0.75;;;3.50;99.90;;;;;;5056088;28;20094;-37
2023/04/04 00:38:03;;;;;;;2.58;1.00;;;3.50;99.90;;;;;;5059549;28;20052;-37
2023/04/04 00:40:29;;;;;;;3.53;1.02;;;3.40;99.90;;;;;;5057478;28;20044;-38
2023/04/04 00:42:56;;;;;;;3.20;1.10;;;3.40;99.90;;;;;;5058455;28;20574;-38
2023/04/04 00:45:22;;;;;;;2.00;1.10;;;3.40;99.90;;;;;;5055765;28;20075;-38
2023/04/04 00:47:49;;;;;;;2.25;1.00;;;3.40;99.90;;;;;;5059009;28;20067;-37
2023/04/04 00:50:15;;;;;;;2.90;1.10;;;3.30;99.90;;;;;;5050128;28;20052;-38
2023/04/04 00:52:41;;;;;;;4.75;1.77;;;3.30;99.90;;;;;;5057933;28;20048;-38
2023/04/04 00:55:07;;;;;;;5.57;1.20;;;3.30;99.90;;;;;;5049372;28;20052;-38
2023/04/04 00:57:33;;;;;;;3.78;1.20;;;3.30;99.90;;;;;;5053775;28;20128;-37
2023/04/04 01:00:03;;;;;;;4.15;1.02;;;3.30;99.90;;;;;;5055666;28;20048;-37
2023/04/04 01:02:29;;;;;;;4.22;1.05;;;3.30;99.90;;;;;;5058519;28;20056;-37
2023/04/04 01:04:55;;;;;;;2.97;1.10;;;3.30;99.90;;;;;;5055570;28;20521;-37
2023/04/04 01:07:21;;;;;;;3.85;1.27;;;3.30;99.90;;;;;;5057564;28;20052;-37
2023/04/04 01:09:47;;;;;;;5.18;1.42;;;3.30;99.90;;;;;;5059001;28;20056;-36
2023/04/04 01:12:13;;;;;;;2.90;1.20;;;3.20;99.90;;;;;;5056639;28;20060;-36
2023/04/04 01:14:39;;;;;;;3.17;1.00;;;;;;;;;;5058773;28;20053;-37
2023/04/04 01:17:05;;;;;;;2.75;1.05;;;3.20;99.90;;;;;;5056130;28;20134;-37
2023/04/04 01:19:48;;;;;;;5.95;1.20;;;3.20;99.90;;;;;;5056489;28;20044;-38
2023/04/04 01:22:15;;;;;;;2.58;1.10;;;3.20;99.90;;;;;;5050243;28;20053;-38
2023/04/04 01:24:43;;;;;;;5.53;1.20;;;3.20;99.90;;;;;;5061713;28;20048;-38
2023/04/04 01:27:09;;;;;;;3.38;1.40;;;3.10;99.90;;;;;;5054327;28;20573;-37
2023/04/04 01:29:35;;;;;;;3.40;1.10;;;3.10;99.90;;;;;;5055721;28;20343;-37
2023/04/04 01:32:26;;;;;;;2.53;1.20;;;3.10;99.90;;;;;;5058225;28;20521;-38
2023/04/04 01:35:27;;;;;;;3.85;1.80;;;3.00;99.90;;;;;;5057171;28;20491;-37
2023/04/04 01:38:05;;;;;;;2.83;1.30;;;3.00;99.90;;;;;;5059152;28;20048;-39
2023/04/04 01:40:38;;;;;;;4.07;1.67;;;2.90;99.90;;;;;;5056610;28;20500;-37
2023/04/04 01:43:04;;;;;;;3.17;1.15;;;2.90;99.90;;;;;;5057184;28;20048;-37
2023/04/04 01:45:29;;;;;;;3.20;1.23;;;2.90;99.90;;;;;;5057475;28;20396;-37
2023/04/04 01:47:55;;;;;;;4.00;1.27;;;2.90;99.90;;;;;;5053580;28;20147;-38
2023/04/04 01:50:22;;;;;;;4.65;1.23;;;2.90;99.90;;;;;;5056455;28;20067;-37
2023/04/04 01:52:48;;;;;;;3.17;1.60;;;2.80;99.90;;;;;;5049161;28;20097;-37
2023/04/04 01:55:14;;;;;;;4.63;1.58;;;2.80;99.90;;;;;;5055481;28;20083;-37
2023/04/04 01:57:40;;;;;;;3.75;1.20;;;2.80;99.90;;;;;;5061218;28;20139;-37
2023/04/04 02:00:06;;;;;;;4.15;1.50;;;2.80;99.90;;;;;;5058713;28;20782;-37
2023/04/04 02:02:32;;;;;;;3.90;1.50;;;2.80;99.90;;;;;;5057224;28;20048;-37
2023/04/04 02:04:58;;;;;;;5.10;1.42;;;2.80;99.90;;;;;;5061279;28;20124;-37
2023/04/04 02:07:24;;;;;;;3.95;1.27;;;2.80;99.90;;;;;;5059456;28;20052;-37
2023/04/04 02:09:50;;;;;;;4.00;1.50;;;2.70;99.90;;;;;;5061126;28;20052;-37
2023/04/04 02:12:16;;;;;;;4.68;1.60;;;2.70;99.90;;;;;;5055844;28;20048;-38
2023/04/04 02:14:42;;;;;;;2.72;1.30;;;2.60;99.90;;;;;;5057378;28;20118;-37
2023/04/04 02:17:07;;;;;;;3.97;1.30;;;2.60;99.90;;;;;;5059019;28;20098;-37
2023/04/04 02:19:33;;;;;;;3.38;1.40;;;2.60;99.90;;;;;;5062757;28;20555;-37
2023/04/04 02:21:59;;;;;;;3.78;1.48;;;2.60;99.90;;;;;;5058558;28;20075;-37
2023/04/04 02:24:25;;;;;;;4.00;1.23;;;2.60;99.90;;;;;;5056574;28;20474;-37
2023/04/04 02:26:51;;;;;;;4.93;2.38;;;2.50;99.90;;;;;;5057997;28;20064;-37
2023/04/04 02:29:18;;;;;;;4.47;1.63;;;2.50;99.90;;;;;;5056308;28;20057;-37
2023/04/04 02:31:43;;;;;;;3.38;1.42;;;2.50;99.90;;;;;;5059665;28;20044;-37
2023/04/04 02:34:09;;;;;;;4.28;1.60;;;2.50;99.90;;;;;;5059478;28;20059;-37
2023/04/04 02:36:35;;;;;;;4.53;1.80;;;2.50;99.90;;;;;;5060353;28;20059;-37
2023/04/04 02:39:01;;;;;;;6.32;1.58;;;2.50;99.90;;;;;;5057905;28;20104;-37
2023/04/04 02:41:26;;;;;;;4.45;1.88;;;2.50;99.90;;;;;;5058169;28;20127;-37
2023/04/04 02:43:52;;;;;;;4.13;1.52;;;2.40;99.90;;;;;;5060177;28;20055;-36
2023/04/04 02:46:18;;;;;;;5.18;1.73;;;2.40;99.90;;;;;;5055488;28;20120;-37
2023/04/04 02:48:43;;;;;;;4.50;1.70;;;2.40;99.90;;;;;;5056979;28;20051;-37
2023/04/04 02:51:09;;;;;;;3.88;1.50;;;2.40;99.90;;;;;;5053988;28;20049;-37
2023/04/04 02:53:35;;;;;;;5.20;1.90;;;2.40;99.90;;;;;;5054101;28;20045;-37
2023/04/04 02:56:04;;;;;;;3.13;1.50;;;2.30;99.90;;;;;;5059449;28;20041;-37
2023/04/04 02:58:33;;;;;;;6.55;1.67;;;2.30;99.90;;;;;;5056655;28;20059;-37
2023/04/04 03:00:58;;;;;;;2.72;1.30;;;2.30;99.90;;;;;;5055130;28;20754;-38
2023/04/04 03:03:24;;;;;;;3.90;1.67;;;2.30;99.90;;;;;;5052296;28;21250;-37
2023/04/04 03:05:50;;;;;;;3.95;1.75;;;2.30;99.90;;;;;;5060512;28;20462;-37
2023/04/04 03:08:16;;;;;;;4.20;2.00;;;2.20;99.90;;;;;;5054766;28;20045;-38
2023/04/04 03:10:44;;;;;;;4.60;1.60;;;2.20;99.90;;;;;;5055375;28;20049;-37
2023/04/04 03:13:09;;;;;;;4.78;1.88;;;2.20;99.90;;;;;;5058686;28;20140;-37
2023/04/04 03:15:35;;;;;;;4.15;1.83;;;2.20;99.90;;;;;;5055873;28;20496;-40
2023/04/04 03:18:02;;;;;;;4.97;2.08;;;2.10;99.90;;;;;;5053160;28;20047;-38
2023/04/04 03:20:27;;;;;;;2.97;1.42;;;2.10;99.90;;;;;;5055385;28;20056;-37
2023/04/04 03:22:53;;;;;;;5.78;2.03;;;2.10;99.90;;;;;;5056609;28;20060;-38
2023/04/04 03:25:19;;;;;;;5.70;2.08;;;2.10;99.90;;;;;;5055878;28;20049;-38
2023/04/04 03:27:44;;;;;;;3.78;1.67;;;2.10;99.90;;;;;;5055804;28;20151;-38
2023/04/04 03:30:11;;;;;;;4.10;1.60;;;2.10;99.90;;;;;;5055450;28;20494;-38
2023/04/04 03:32:38;;;;;;;3.40;1.70;;;2.10;99.90;;;;;;5054754;28;20194;-38
2023/04/04 03:35:05;;;;;;;7.43;1.95;;;2.10;99.90;;;;;;5053415;28;20052;-38
2023/04/04 03:37:31;;;;;;;4.85;2.08;;;2.00;99.90;;;;;;5056794;28;20056;-38
2023/04/04 03:39:57;;;;;;;5.43;1.90;;;2.00;99.90;;;;;;5053722;28;20267;-37
2023/04/04 03:42:23;;;;;;;3.97;1.60;;;2.00;99.90;;;;;;5058392;28;20121;-38
2023/04/04 03:44:49;;;;;;;4.10;1.63;;;1.90;99.90;;;;;;5060926;28;20446;-37
2023/04/04 03:47:14;;;;;;;4.20;1.73;;;1.90;99.90;;;;;;5054460;28;20052;-37
2023/04/04 03:49:41;;;;;;;4.05;1.40;;;1.80;99.90;;;;;;5058461;28;20036;-37
2023/04/04 03:52:06;;;;;;;5.28;1.83;;;1.70;99.90;;;;;;5058087;28;20047;-46
2023/04/04 03:54:32;;;;;;;6.55;1.80;;;1.70;99.90;;;;;;5059168;28;20056;-37
2023/04/04 03:56:58;;;;;;;4.15;1.90;;;1.70;99.90;;;;;;5057257;28;20433;-37
2023/04/04 03:59:23;;;;;;;5.78;2.38;;;1.60;99.90;;;;;;5057167;28;20059;-36
2023/04/04 04:01:49;;;;;;;7.43;1.63;;;1.60;99.90;;;;;;5058703;28;20053;-36
2023/04/04 04:04:15;;;;;;;3.28;1.65;;;1.60;99.90;;;;;;5060253;28;20531;-37
2023/04/04 04:06:42;;;;;;;4.55;1.90;;;1.70;99.90;;;;;;5059211;28;20401;-37
2023/04/04 04:09:08;;;;;;;4.28;1.90;;;1.70;99.90;;;;;;5056383;28;20135;-37
2023/04/04 04:11:35;;;;;;;4.45;2.03;;;1.60;99.90;;;;;;5058771;28;20050;-37
2023/04/04 04:14:00;;;;;;;6.22;1.85;;;1.60;99.90;;;;;;5053799;28;20048;-37
2023/04/04 04:16:27;;;;;;;5.95;2.20;;;1.60;99.90;;;;;;5039811;28;20040;-37
2023/04/04 04:18:52;;;;;;;4.88;1.95;;;1.60;99.90;;;;;;5060362;28;20135;-36
2023/04/04 04:21:18;;;;;;;5.10;1.95;;;1.60;99.90;;;;;;5057291;28;20143;-36
2023/04/04 04:23:44;;;;;;;4.32;1.75;;;1.50;99.90;;;;;;5060352;28;20043;-36
2023/04/04 04:26:10;;;;;;;4.75;2.00;;;1.50;99.90;;;;;;5055761;28;20074;-37
2023/04/04 04:28:35;;;;;;;4.53;2.03;;;1.50;99.90;;;;;;5060027;28;20048;-36
2023/04/04 04:31:06;;;;;;;5.43;2.25;;;1.50;99.90;;;;;;5059947;28;20051;-36
2023/04/04 04:33:32;;;;;;;5.82;2.20;;;1.50;99.90;;;;;;5037366;28;20057;-37
2023/04/04 04:36:05;;;;;;;5.13;1.98;;;1.50;99.90;;;;;;5052944;28;20047;-37
2023/04/04 04:38:34;;;;;;;5.50;2.80;;;1.40;99.90;;;;;;5055368;28;20143;-37
2023/04/04 04:41:00;;;;;;;8.65;2.78;;;1.40;99.90;;;;;;5050692;28;20543;-37
2023/04/04 04:43:26;;;;;;;5.53;2.45;;;1.50;99.90;;;;;;5053757;28;20044;-37
2023/04/04 04:45:52;;;;;;;4.43;1.92;;;1.40;99.90;;;;;;5056236;28;20045;-37
2023/04/04 04:48:17;;;;;;;4.97;2.10;;;1.40;99.90;;;;;;5050507;28;20114;-37
2023/04/04 04:50:47;;;;;;;8.52;2.55;;;1.40;99.90;;;;;;5050641;28;20049;-37
2023/04/04 04:53:13;;;;;;;6.88;1.92;;;1.30;99.90;;;;;;5052664;28;20076;-42
2023/04/04 04:55:39;;;;;;;4.90;2.15;;;1.30;99.90;;;;;;5039139;28;20079;-38
2023/04/04 04:58:05;;;;;;;5.75;2.30;;;1.30;99.90;;;;;;5055051;28;20473;-37
2023/04/04 05:00:31;;;;;;;5.45;2.10;;;1.30;99.90;;;;;;5051482;28;20036;-37
2023/04/04 05:02:59;;;;;;;6.13;2.35;;;1.30;99.90;;;;;;5054836;28;20051;-36
2023/04/04 05:05:25;;;;;;;5.43;2.10;;;1.30;99.90;;;;;;5052639;28;20601;-37
2023/04/04 05:07:51;;;;;;;6.18;2.35;;;1.30;99.90;;;;;;5042137;28;20044;-37
2023/04/04 05:10:16;;;;;;;4.88;2.10;;;1.30;99.90;;;;;;5055207;28;20043;-37
2023/04/04 05:12:43;;;;;;;5.20;2.40;;;1.30;99.90;;;;;;5054019;28;20072;-37
2023/04/04 05:15:11;;;;;;;5.43;1.98;;;1.30;99.90;;;;;;5054665;28;20498;-37
2023/04/04 05:17:37;;;;;;;6.72;2.90;;;1.30;99.90;;;;;;5037733;28;20128;-37
2023/04/04 05:20:03;;;;;;;6.63;2.92;;;1.30;99.90;;;;;;5058241;28;20142;-37
2023/04/04 05:22:29;;;;;;;6.80;2.78;;;1.30;99.90;;;;;;5035746;28;20755;-37
2023/04/04 05:24:55;;;;;;;5.40;2.35;;;1.30;99.90;;;;;;5055835;28;20062;-37
2023/04/04 05:27:21;;;;;;;4.57;2.35;;;1.30;99.90;;;;;;5052798;28;20599;-38
2023/04/04 05:29:47;;;;;;;6.13;2.25;;;1.30;99.90;;;;;;5060470;28;20135;-37
2023/04/04 05:32:13;;;;;;;7.05;2.40;;;1.30;99.90;;;;;;5053904;28;20069;-37
2023/04/04 05:34:39;;;;;;;6.00;2.45;;;1.30;99.90;;;;;;5052202;28;20055;-37
2023/04/04 05:37:05;;;;;;;7.35;2.80;;;1.30;99.90;;;;;;5052750;28;20533;-37
2023/04/04 05:39:30;;;;;;;6.63;2.83;;;1.30;99.90;;;;;;5056535;28;20052;-37
2023/04/04 05:41:56;;;;;;;7.25;3.05;;;1.30;99.90;;;;;;5035670;28;20056;-37
2023/04/04 05:44:22;;;;;;;10.27;3.40;;;1.40;99.90;;;;;;5052971;28;20052;-37
2023/04/04 05:46:48;;;;;;;8.07;3.30;;;1.30;99.90;;;;;;5051327;28;20135;-37
2023/04/04 05:49:13;;;;;;;6.82;2.97;;;1.40;99.90;;;;;;5035509;28;20083;-37
2023/04/04 05:51:39;;;;;;;5.28;2.80;;;1.40;99.90;;;;;;5057372;28;20048;-37
2023/04/04 05:54:06;;;;;;;6.53;3.00;;;1.50;99.90;;;;;;5055064;28;20135;-36
2023/04/04 05:56:33;;;;;;;5.78;2.25;;;1.60;99.90;;;;;;5035951;28;20049;-39
2023/04/04 05:58:58;;;;;;;4.38;2.20;;;1.60;99.90;;;;;;5048322;28;20045;-40
2023/04/04 06:01:24;;;;;;;7.80;2.63;;;1.60;99.90;;;;;;5046899;28;20123;-39
2023/04/04 06:03:50;;;;;;;6.05;3.20;;;1.60;99.90;;;;;;5050303;28;20045;-40
2023/04/04 06:06:17;;;;;;;6.55;2.67;;;1.60;99.90;;;;;;5053677;28;20048;-42
2023/04/04 06:08:42;;;;;;;5.22;2.55;;;1.80;99.90;;;;;;5032532;28;20153;-40
2023/04/04 06:11:08;;;;;;;5.28;2.55;;;1.80;99.90;;;;;;5046195;28;20048;-42
2023/04/04 06:13:34;;;;;;;4.88;2.28;;;1.90;99.90;;;;;;5050917;28;20051;-44
2023/04/04 06:16:00;;;;;;;6.30;1.95;;;1.90;99.90;;;;;;5035008;28;20490;-42
2023/04/04 06:18:26;;;;;;;5.22;2.05;;;2.00;99.90;;;;;;5052744;28;20059;-39
2023/04/04 06:20:51;;;;;;;4.60;1.70;;;1.90;99.90;;;;;;5055156;28;20463;-41
2023/04/04 06:23:17;;;;;;;4.00;1.90;;;2.00;99.90;;;;;;5054773;28;20044;-41
2023/04/04 06:25:43;;;;;;;6.45;2.17;;;2.00;99.90;;;;;;5055634;28;20498;-41
2023/04/04 06:28:09;;;;;;;4.68;1.88;;;2.10;99.90;;;;;;5053702;28;20127;-41
2023/04/04 06:30:38;;;;;;;4.78;2.00;;;2.00;99.90;;;;;;5057512;28;20047;-42
2023/04/04 06:33:04;;;;;;;4.32;1.60;;;2.10;99.90;;;;;;5052298;28;20144;-41
2023/04/04 06:35:30;;;;;;;4.22;1.42;;;2.30;99.90;;;;;;5050590;28;20048;-42
2023/04/04 06:37:56;;;;;;;6.35;1.75;;;2.30;99.90;;;;;;5057271;28;20521;-39
2023/04/04 06:40:22;;;;;;;4.45;1.70;;;2.30;99.90;;;;;;5053954;28;20056;-41
2023/04/04 06:42:52;;;;;;;4.63;1.77;;;2.30;99.90;;;;;;5056179;28;20056;-41
2023/04/04 06:45:18;;;;;;;3.50;1.77;;;2.40;99.90;;;;;;5038624;28;20476;-40
2023/04/04 06:47:45;;;;;;;5.55;1.92;;;2.50;99.90;;;;;;5055849;28;20176;-42
2023/04/04 06:50:11;;;;;;;4.55;1.48;;;2.40;99.90;;;;;;5058646;28;20045;-40
2023/04/04 06:52:37;;;;;;;4.97;1.70;;;2.50;99.90;;;;;;5053738;28;20048;-41
2023/04/04 06:55:03;;;;;;;3.17;1.42;;;2.60;99.90;;;;;;5060025;28;20061;-47
2023/04/04 06:57:29;;;;;;;4.22;1.63;;;2.60;99.90;;;;;;5058782;28;20125;-41
2023/04/04 06:59:54;;;;;;;3.88;1.50;;;2.80;99.90;;;;;;5052984;28;20159;-41
2023/04/04 07:02:20;;;;;;;4.15;1.65;;;2.90;99.90;;;;;;5060003;28;20169;-41
2023/04/04 07:04:45;;;;;;;2.88;1.15;;;3.00;99.90;;;;;;5062218;28;20056;-40
2023/04/04 07:07:11;;;;;;;4.38;1.10;;;3.10;99.90;;;;;;5063518;28;20536;-41
2023/04/04 07:09:37;;;;;;;5.03;1.92;;;3.20;99.90;;;;;;5058659;28;20505;-41
2023/04/04 07:12:03;;;;;;;3.60;1.33;;;3.30;99.90;;;;;;5059869;28;20058;-41
2023/04/04 07:14:29;;;;;;;2.45;0.98;;;3.30;99.90;;;;;;5058566;28;20049;-41
2023/04/04 07:16:54;;;;;;;3.38;1.67;;;3.40;99.90;;;;;;5059220;28;21061;-40
2023/04/04 07:19:23;;;;;;;3.33;1.17;;;3.50;99.90;;;;;;5060962;28;20059;-41
2023/04/04 07:21:49;;;;;;;2.95;1.02;;;3.60;99.90;;;;;;5062098;28;20055;-41
2023/04/04 07:24:15;;;;;;;3.67;1.73;;;3.70;99.90;;;;;;5060343;28;20736;-41
2023/04/04 07:26:41;;;;;;;4.68;1.50;;;3.80;99.90;;;;;;5059396;28;20059;-41
2023/04/04 07:29:06;;;;;;;5.07;1.15;;;3.80;99.90;;;;;;5061912;28;20076;-41
2023/04/04 07:31:32;;;;;;;3.05;1.33;;;3.90;99.90;;;;;;5061417;28;20200;-41
2023/04/04 07:33:58;;;;;;;3.22;1.40;;;4.00;99.90;;;;;;5058292;28;20056;-42
2023/04/04 07:36:24;;;;;;;3.03;1.50;;;4.10;99.90;;;;;;5059273;28;20040;-44
2023/04/04 07:38:50;;;;;;;4.03;1.75;;;4.20;99.90;;;;;;5053381;28;20060;-48
2023/04/04 07:41:16;;;;;;;4.10;1.20;;;4.30;99.90;;;;;;5058803;28;20071;-46
2023/04/04 07:43:41;;;;;;;5.53;1.83;;;4.40;99.90;;;;;;5044881;28;20044;-47
2023/04/04 07:46:07;;;;;;;4.38;1.75;;;4.60;99.90;;;;;;5053816;28;20075;-42
2023/04/04 07:48:33;;;;;;;3.08;1.42;;;4.70;99.90;;;;;;5053635;28;20071;-46
2023/04/04 07:51:03;;;;;;;2.45;1.15;;;4.80;99.90;;;;;;5054771;28;20122;-45
2023/04/04 07:53:29;;;;;;;5.13;1.17;;;4.90;99.90;;;;;;5043093;28;20044;-46
2023/04/04 07:55:54;;;;;;;2.85;1.15;;;5.10;99.90;;;;;;5066063;28;20040;-45
2023/04/04 07:58:21;;;;;;;4.95;1.38;;;5.20;99.90;;;;;;5064684;28;20053;-42
2023/04/04 08:00:46;;;;;;;2.88;1.00;;;5.30;99.90;;;;;;5064026;28;20055;-46
2023/04/04 08:03:12;;;;;;;3.88;1.33;;;5.40;99.90;;;;;;5059394;28;20044;-46
2023/04/04 08:05:38;;;;;;;3.00;1.20;;;5.50;99.90;;;;;;5062837;28;20044;-38
2023/04/04 08:08:04;;;;;;;4.13;1.23;;;5.60;99.90;;;;;;5067273;28;20080;-44
2023/04/04 08:10:30;;;;;;;2.30;1.13;;;5.80;99.90;;;;;;5061425;28;20124;-44
2023/04/04 08:12:56;;;;;;;3.22;1.02;;;5.90;99.90;;;;;;5060845;28;20056;-48
2023/04/04 08:15:21;;;;;;;3.22;1.10;;;6.00;99.90;;;;;;5063719;28;20410;-44
2023/04/04 08:17:47;;;;;;;6.07;1.05;;;6.00;99.90;;;;;;5064383;28;20093;-46
2023/04/04 08:20:13;;;;;;;1.80;0.70;;;6.20;99.90;;;;;;5065192;28;20756;-44
2023/04/04 08:22:40;;;;;;;3.17;0.88;;;6.30;99.90;;;;;;5061068;28;20452;-48
2023/04/04 08:25:07;;;;;;;7.25;1.00;;;6.40;99.90;;;;;;5059439;28;20119;-47
2023/04/04 08:27:33;;;;;;;3.78;1.02;;;6.50;99.90;;;;;;5060237;28;20086;-45
2023/04/04 08:29:59;;;;;;;3.88;1.20;;;6.60;99.90;;;;;;5064302;28;20044;-41
2023/04/04 08:32:25;;;;;;;2.78;0.73;;;6.70;99.90;;;;;;5065125;28;20048;-42
2023/04/04 08:34:51;;;;;;;3.22;0.93;;;6.90;99.90;;;;;;5065335;28;20143;-45
2023/04/04 08:37:17;;;;;;;4.47;0.93;;;6.90;99.90;;;;;;5067221;28;20054;-46
2023/04/04 08:39:45;;;;;;;2.08;0.70;;;7.10;99.90;;;;;;5068804;28;20048;-45
2023/04/04 08:42:13;;;;;;;4.03;1.00;;;7.20;99.90;;;;;;5060609;28;20506;-48
2023/04/04 08:44:42;;;;;;;2.85;0.75;;;7.30;99.90;;;;;;5061093;28;20060;-45
2023/04/04 08:47:09;;;;;;;2.63;0.82;;;7.30;99.90;;;;;;5059678;28;20627;-47
2023/04/04 08:49:39;;;;;;;2.92;0.85;;;7.40;99.90;;;;;;5068105;28;20079;-45
2023/04/04 08:52:07;;;;;;;2.63;0.75;;;7.50;99.90;;;;;;5061061;28;20454;-45
2023/04/04 08:54:34;;;;;;;2.55;0.95;;;7.40;99.90;;;;;;5059099;28;20061;-46
2023/04/04 08:57:01;;;;;;;4.22;1.23;;;7.40;99.90;;;;;;5064133;28;20111;-47
2023/04/04 08:59:27;;;;;;;3.42;1.25;;;7.40;99.90;;;;;;5053262;28;20060;-45
2023/04/04 09:02:22;;;;;;;3.05;0.80;;;7.50;99.90;;;;;;5042341;28;20080;-44
2023/04/04 09:04:48;;;;;;;5.80;1.00;;;7.60;99.90;;;;;;5011108;28;20059;-47
2023/04/04 09:07:15;;;;;;;3.13;0.98;;;7.70;99.90;;;;;;5053556;28;20045;-43
2023/04/04 09:09:45;;;;;;;2.67;1.13;;;7.80;99.90;;;;;;5054822;28;20395;-43
2023/04/04 09:12:13;;;;;;;3.15;0.75;;;7.90;99.90;;;;;;5050832;28;20060;-45
2023/04/04 09:14:40;;;;;;;2.50;0.70;;;7.90;99.90;;;;;;5053940;28;20491;-45
2023/04/04 09:17:09;;;;;;;3.00;0.90;;;8.10;99.90;;;;;;5062918;28;20651;-43
2023/04/04 09:19:35;;;;;;;2.22;0.65;;;8.20;99.90;;;;;;5042091;28;20142;-44
2023/04/04 09:22:01;;;;;;;2.92;0.60;;;8.20;99.90;;;;;;5061562;28;20052;-44
2023/04/04 09:24:40;;;;;;;2.47;0.60;;;8.20;99.90;;;;;;5025405;28;20501;-45
2023/04/04 09:27:09;;;;;;;4.32;1.00;;;8.30;99.90;;;;;;5057812;28;20519;-44
2023/04/04 09:29:36;;;;;;;1.58;0.43;;;8.30;99.90;;;;;;5058109;28;20494;-43
2023/04/04 09:32:02;;;;;;;2.42;0.50;;;8.30;99.90;;;;;;5063485;28;20127;-43
2023/04/04 09:34:29;;;;;;;2.72;0.60;;;8.40;99.90;;;;;;5059841;28;20060;-43
2023/04/04 09:36:56;;;;;;;2.00;0.50;;;8.50;99.90;;;;;;5057826;28;20407;-45
2023/04/04 09:39:22;;;;;;;2.67;0.60;;;8.60;99.90;;;;;;5061099;28;20128;-44
2023/04/04 09:41:48;;;;;;;2.47;0.50;;;8.80;99.90;;;;;;5064095;28;20052;-44
2023/04/04 09:44:15;;;;;;;2.58;0.55;;;9.00;99.90;;;;;;5064581;28;20071;-45
2023/04/04 09:46:41;;;;;;;3.30;0.80;;;9.00;99.90;;;;;;5065234;28;20048;-47
2023/04/04 09:49:18;;;;;;;3.47;0.90;;;9.00;99.90;;;;;;5058919;28;20540;-45
2023/04/04 09:51:47;;;;;;;2.70;0.60;;;9.00;99.90;;;;;;5066674;28;20083;-44
2023/04/04 09:54:20;;;;;;;3.42;0.80;;;9.10;99.90;;;;;;5057946;28;20498;-45
2023/04/04 09:56:47;;;;;;;2.10;0.80;;;9.10;99.90;;;;;;5059464;28;20086;-43
2023/04/04 09:59:14;;;;;;;3.58;0.93;;;9.20;99.90;;;;;;5058397;28;20118;-44
2023/04/04 10:01:39;;;;;;;6.03;1.58;;;9.20;99.90;;;;;;5057494;28;20080;-43
2023/04/04 10:04:07;;;;;;;3.60;0.88;;;9.30;99.90;;;;;;5058828;28;20469;-46
2023/04/04 10:06:35;;;;;;;2.45;0.95;;;9.40;99.90;;;;;;5057867;28;20058;-43
2023/04/04 10:09:02;;;;;;;3.70;0.80;;;9.50;99.90;;;;;;5063015;28;20056;-44
2023/04/04 10:11:32;;;;;;;2.75;0.80;;;9.50;99.90;;;;;;5063535;28;20053;-43
2023/04/04 10:13:59;;;;;;;3.95;0.88;;;9.60;99.90;;;;;;5061797;28;20496;-44
2023/04/04 10:16:25;;;;;;;4.07;0.73;;;9.60;99.90;;;;;;5068659;28;20044;-44
2023/04/04 10:18:52;;;;;;;1.85;0.80;;;9.70;99.90;;;;;;5075713;28;20060;-46
2023/04/04 10:21:18;;;;;;;3.50;1.00;;;9.70;99.90;;;;;;5061028;28;20100;-45
2023/04/04 10:23:48;;;;;;;1.85;0.65;;;9.80;99.90;;;;;;5065075;28;20060;-43
2023/04/04 10:26:14;;;;;;;2.53;0.85;;;9.90;99.90;;;;;;5068834;28;20071;-44
2023/04/04 10:28:41;;;;;;;3.70;1.00;;;9.90;99.90;;;;;;5051703;28;20045;-43
2023/04/04 10:31:26;;;;;;;1.60;0.70;;;9.90;99.90;;;;;;5070822;28;20139;-46
2023/04/04 10:34:24;;;;;;;2.72;0.90;;;9.80;99.90;;;;;;5070743;28;20139;-42
2023/04/04 10:36:53;;;;;;;3.40;0.88;;;9.90;99.90;;;;;;5046003;28;20498;-40
2023/04/04 10:39:52;;;;;;;3.70;1.10;;;10.00;99.90;;;;;;5071048;28;20144;-40
2023/04/04 10:42:18;;;;;;;4.93;0.90;;;10.10;99.90;;;;;;5028306;28;20066;-40
2023/04/04 10:44:45;;;;;;;4.57;0.93;;;10.30;99.90;;;;;;5070198;28;20056;-44
2023/04/04 10:47:13;;;;;;;3.28;1.25;;;10.40;99.90;;;;;;5066292;28;20041;-42
2023/04/04 10:49:43;;;;;;;3.20;1.02;;;10.50;99.90;;;;;;5070646;28;20122;-41
2023/04/04 10:52:12;;;;;;;1.70;0.75;;;10.60;99.90;;;;;;5069653;28;20103;-42
2023/04/04 10:54:39;;;;;;;4.43;1.20;;;10.50;99.90;;;;;;5070442;28;20102;-41
2023/04/04 10:57:06;;;;;;;2.75;0.90;;;10.40;99.90;;;;;;5069564;28;20517;-41
2023/04/04 10:59:31;;;;;;;3.90;1.10;;;10.40;99.90;;;;;;5070099;28;20055;-41
2023/04/04 11:01:59;;;;;;;4.82;1.08;;;10.50;99.90;;;;;;5067475;28;20464;-41
2023/04/04 11:04:30;;;;;;;4.63;1.70;;;10.50;99.90;;;;;;5070647;28;20056;-41
2023/04/04 11:07:15;;;;;;;2.40;1.00;;;10.50;99.90;;;;;;5069987;28;20081;-41
2023/04/04 11:09:51;;;;;;;2.38;0.85;;;10.50;99.90;;;;;;5048374;28;20494;-42
2023/04/04 11:12:44;;;;;;;2.80;0.90;;;10.50;99.90;;;;;;5051572;28;20072;-38
2023/04/04 11:15:12;;;;;;;2.88;0.90;;;10.70;99.90;;;;;;5069710;28;20052;-44
2023/04/04 11:17:53;;;;;;;2.50;0.98;;;10.90;99.90;;;;;;5069315;28;20143;-43
2023/04/04 11:20:33;;;;;;;1.73;0.73;;;11.10;99.90;;;;;;5068185;28;20087;-47
2023/04/04 11:23:09;;;;;;;2.97;0.80;;;11.20;99.90;;;;;;5068572;28;20056;-46
2023/04/04 11:25:40;;;;;;;2.42;0.70;;;11.30;99.90;;;;;;5069091;28;20049;-45
2023/04/04 11:28:24;;;;;;;3.15;1.27;;;11.40;99.90;;;;;;5034440;28;20052;-44
2023/04/04 11:31:31;;;;;;;2.35;0.85;;;11.50;99.90;;;;;;5064294;28;20144;-46
2023/04/04 11:34:06;;;;;;;3.00;0.75;;;11.60;99.90;;;;;;5049734;28;20052;-46
2023/04/04 11:36:34;;;;;;;2.13;0.70;;;11.80;99.90;;;;;;5069607;28;20049;-45
2023/04/04 11:39:24;;;;;;;3.50;0.88;;;12.10;99.90;;;;;;5069100;28;20064;-43
2023/04/04 11:41:53;;;;;;;1.95;0.70;;;12.20;99.90;;;;;;5068760;28;20502;-43
2023/04/04 11:44:24;;;;;;;2.13;0.70;;;12.30;99.90;;;;;;5069194;28;20133;-44
2023/04/04 11:47:10;;;;;;;3.10;0.93;;;12.40;99.90;;;;;;5067975;28;20052;-46
2023/04/04 11:49:40;;;;;;;1.70;0.77;;;12.60;99.90;;;;;;5069783;28;20117;-44
2023/04/04 11:52:08;;;;;;;2.25;0.90;;;12.60;99.90;;;;;;5065448;28;20490;-46
2023/04/04 11:54:36;;;;;;;2.40;0.70;;;12.70;99.90;;;;;;5069383;28;20063;-50
2023/04/04 11:57:04;;;;;;;3.80;0.80;;;12.80;99.90;;;;;;5068919;28;20084;-48
2023/04/04 11:59:30;;;;;;;3.35;1.40;;;12.80;99.90;;;;;;5069095;28;20048;-45
2023/04/04 12:01:56;;;;;;;2.42;1.02;;;13.10;99.90;;;;;;5068169;28;20524;-44
2023/04/04 12:04:24;;;;;;;4.32;1.00;;;13.20;99.90;;;;;;5068775;28;20074;-44
2023/04/04 12:06:54;;;;;;;3.47;1.05;;;13.40;99.90;;;;;;5068484;28;20044;-43
2023/04/04 12:09:22;;;;;;;4.97;0.90;;;13.40;99.90;;;;;;5066836;28;20110;-45
2023/04/04 12:11:49;;;;;;;2.50;0.80;;;13.30;99.90;;;;;;5068294;28;20497;-43
2023/04/04 12:14:17;;;;;;;2.95;1.08;;;13.30;99.90;;;;;;5068707;28;20067;-45
2023/04/04 12:16:44;;;;;;;3.13;0.80;;;13.30;99.90;;;;;;5057727;28;20052;-44
2023/04/04 12:19:11;;;;;;;4.43;1.05;;;13.50;99.90;;;;;;5067788;28;20055;-46
2023/04/04 12:21:36;;;;;;;3.13;0.80;;;13.60;99.90;;;;;;5069286;28;20768;-46
2023/04/04 12:24:02;;;;;;;3.30;1.08;;;13.80;99.90;;;;;;5067881;28;20056;-44
2023/04/04 12:26:28;;;;;;;4.47;1.00;;;13.90;99.90;;;;;;5068289;28;20506;-44
2023/04/04 12:28:58;;;;;;;1.75;0.80;;;13.90;99.90;;;;;;5067936;28;20044;-44
2023/04/04 12:31:28;;;;;;;3.13;1.00;;;13.80;99.90;;;;;;5068164;28;20051;-44
2023/04/04 12:33:54;;;;;;;3.85;1.00;;;13.70;99.90;;;;;;5049578;28;20448;-46
2023/04/04 12:36:21;;;;;;;2.53;1.20;;;13.80;99.90;;;;;;5054060;28;20048;-43
2023/04/04 12:39:16;;;;;;;2.03;0.82;;;14.00;99.90;;;;;;5050413;28;20465;-46
2023/04/04 12:41:50;;;;;;;2.47;1.00;;;14.20;99.90;;;;;;5055400;28;20122;-43
2023/04/04 12:44:30;;;;;;;2.63;0.98;;;14.30;99.90;;;;;;5063655;28;20113;-43
2023/04/04 12:46:58;;;;;;;3.00;0.93;;;14.40;99.90;;;;;;5067435;28;20059;-46
2023/04/04 12:49:47;;;;;;;3.03;0.90;;;14.60;99.90;;;;;;5050740;28;20113;-43
2023/04/04 12:52:31;;;;;;;4.03;1.10;;;14.60;99.90;;;;;;5064920;28;20513;-46
2023/04/04 12:55:09;;;;;;;2.80;1.10;;;14.80;99.90;;;;;;5067010;28;20060;-45
2023/04/04 12:57:38;;;;;;;1.85;0.73;;;14.80;99.90;;;;;;5064471;28;20048;-45
2023/04/04 13:00:07;;;;;;;3.40;1.00;;;14.90;99.90;;;;;;5067346;28;20618;-41